Time,TemperatureF,DewpointF,PressureIn,WindDirection,WindDirectionDegrees,WindSpeedMPH,WindSpeedGustMPH,Humidity,HourlyPrecipIn,Conditions,Clouds,dailyrainin,SoftwareType,DateUTC
2013-01-11 00:02:00,39.0,32.0,30.23,West,263,0.0,2.0,77,0.00,,,0.00,,2013-01-11 08:02:00,
2013-01-11 00:11:00,39.0,33.0,30.23,West,259,0.0,2.0,78,0.00,,,0.00,,2013-01-11 08:11:00,
2013-01-11 00:22:00,39.0,33.0,30.23,West,259,0.0,2.0,78,0.00,,,0.00,,2013-01-11 08:22:00,
2013-01-11 00:32:00,39.0,32.0,30.23,West,259,0.0,0.0,77,0.00,,,0.00,,2013-01-11 08:32:00,
2013-01-11 00:42:00,39.0,32.0,30.23,West,259,0.0,0.0,77,0.00,,,0.00,,2013-01-11 08:42:00,
2013-01-11 00:52:00,39.0,32.0,30.23,West,259,0.0,0.0,77,0.00,,,0.00,,2013-01-11 08:52:00,
2013-01-11 01:02:00,38.0,31.0,30.23,West,259,0.0,0.0,77,0.00,,,0.00,,2013-01-11 09:02:00,
2013-01-11 01:11:00,38.0,31.0,30.23,West,259,0.0,0.0,77,0.00,,,0.00,,2013-01-11 09:11:00,
2013-01-11 01:22:00,38.0,31.0,30.23,West,259,0.0,0.0,77,0.00,,,0.00,,2013-01-11 09:22:00,
2013-01-11 01:32:00,37.0,31.0,30.23,West,259,0.0,0.0,78,0.00,,,0.00,,2013-01-11 09:32:00,
2013-01-11 01:42:00,37.0,31.0,30.23,West,259,0.0,0.0,78,0.00,,,0.00,,2013-01-11 09:42:00,
2013-01-11 01:52:00,37.0,31.0,30.23,West,259,0.0,0.0,79,0.00,,,0.00,,2013-01-11 09:52:00,
2013-01-11 02:02:00,36.0,30.0,30.23,West,259,0.0,0.0,80,0.00,,,0.00,,2013-01-11 10:02:00,
2013-01-11 02:22:00,36.0,30.0,30.23,West,259,0.0,0.0,80,0.00,,,0.00,,2013-01-11 10:22:00,
2013-01-11 02:32:00,36.0,31.0,30.24,West,259,0.0,0.0,81,0.00,,,0.00,,2013-01-11 10:32:00,
2013-01-11 02:52:00,36.0,31.0,30.23,West,259,0.0,0.0,81,0.00,,,0.00,,2013-01-11 10:52:00,
2013-01-11 03:02:00,36.0,31.0,30.23,West,259,0.0,0.0,82,0.00,,,0.00,,2013-01-11 11:02:00,
2013-01-11 03:22:00,36.0,31.0,30.22,West,259,0.0,0.0,82,0.00,,,0.00,,2013-01-11 11:22:00,
2013-01-11 03:32:00,36.0,31.0,30.23,West,259,0.0,0.0,82,0.00,,,0.00,,2013-01-11 11:32:00,
2013-01-11 03:42:00,36.0,31.0,30.23,West,259,0.0,0.0,82,0.00,,,0.00,,2013-01-11 11:42:00,
2013-01-11 03:52:00,36.0,31.0,30.23,West,259,0.0,0.0,83,0.00,,,0.00,,2013-01-11 11:52:00,
2013-01-11 04:02:00,36.0,31.0,30.23,West,259,0.0,0.0,82,0.00,,,0.00,,2013-01-11 12:02:00,
2013-01-11 04:22:00,36.0,31.0,30.23,West,259,0.0,0.0,82,0.00,,,0.00,,2013-01-11 12:22:00,
2013-01-11 04:32:00,36.0,31.0,30.23,West,259,0.0,0.0,82,0.00,,,0.00,,2013-01-11 12:32:00,
2013-01-11 04:52:00,36.0,31.0,30.23,West,259,0.0,0.0,82,0.00,,,0.00,,2013-01-11 12:52:00,
2013-01-11 05:02:00,35.0,30.0,30.23,West,259,0.0,0.0,82,0.00,,,0.00,,2013-01-11 13:02:00,
2013-01-11 05:22:00,35.0,30.0,30.24,West,259,0.0,0.0,83,0.00,,,0.00,,2013-01-11 13:22:00,
2013-01-11 05:32:00,35.0,30.0,30.24,West,259,0.0,0.0,83,0.00,,,0.00,,2013-01-11 13:32:00,
2013-01-11 05:42:00,35.0,30.0,30.24,West,259,0.0,0.0,83,0.00,,,0.00,,2013-01-11 13:42:00,
2013-01-11 05:52:00,35.0,30.0,30.24,West,259,0.0,0.0,83,0.00,,,0.00,,2013-01-11 13:52:00,
2013-01-11 06:02:00,35.0,30.0,30.25,West,259,0.0,0.0,83,0.00,,,0.00,,2013-01-11 14:02:00,
2013-01-11 06:11:00,35.0,30.0,30.25,West,259,0.0,0.0,83,0.00,,,0.00,,2013-01-11 14:11:00,
2013-01-11 06:22:00,34.0,29.0,30.25,West,259,0.0,0.0,83,0.00,,,0.00,,2013-01-11 14:22:00,
2013-01-11 06:32:00,34.0,29.0,30.26,West,259,0.0,0.0,83,0.00,,,0.00,,2013-01-11 14:32:00,
2013-01-11 06:42:00,34.0,29.0,30.26,West,259,0.0,0.0,83,0.00,,,0.00,,2013-01-11 14:42:00,
2013-01-11 06:53:00,34.0,29.0,30.26,West,259,0.0,0.0,83,0.00,,,0.00,,2013-01-11 14:53:00,
2013-01-11 07:02:00,33.0,28.0,30.27,West,259,0.0,0.0,83,0.00,,,0.00,,2013-01-11 15:02:00,
2013-01-11 07:12:00,33.0,29.0,30.27,West,259,0.0,0.0,84,0.00,,,0.00,,2013-01-11 15:12:00,
2013-01-11 07:22:00,33.0,29.0,30.27,West,259,0.0,0.0,84,0.00,,,0.00,,2013-01-11 15:22:00,
2013-01-11 07:32:00,33.0,29.0,30.27,West,259,0.0,0.0,84,0.00,,,0.00,,2013-01-11 15:32:00,
2013-01-11 07:42:00,33.0,29.0,30.27,West,259,0.0,0.0,84,0.00,,,0.00,,2013-01-11 15:42:00,
2013-01-11 08:02:00,32.0,28.0,30.28,West,259,0.0,0.0,84,0.00,,,0.00,,2013-01-11 16:02:00,
2013-01-11 08:12:00,32.0,28.0,30.29,West,259,0.0,0.0,85,0.00,,,0.00,,2013-01-11 16:12:00,
2013-01-11 08:32:00,32.0,28.0,30.29,West,259,0.0,0.0,85,0.00,,,0.00,,2013-01-11 16:32:00,
2013-01-11 08:53:00,33.0,29.0,30.29,West,259,0.0,0.0,86,0.00,,,0.00,,2013-01-11 16:53:00,
2013-01-11 09:02:00,33.0,29.0,30.29,West,259,0.0,0.0,86,0.00,,,0.00,,2013-01-11 17:02:00,
2013-01-11 09:12:00,37.0,34.0,30.29,West,259,0.0,0.0,88,0.00,,,0.00,,2013-01-11 17:12:00,
2013-01-11 09:22:00,37.0,34.0,30.29,West,259,0.0,0.0,88,0.00,,,0.00,,2013-01-11 17:22:00,
2013-01-11 09:32:00,43.0,36.0,30.29,SSE,153,0.0,0.0,75,0.00,,,0.00,,2013-01-11 17:32:00,
2013-01-11 09:42:00,43.0,36.0,30.29,SSE,153,0.0,0.0,75,0.00,,,0.00,,2013-01-11 17:42:00,
2013-01-11 09:52:00,43.0,35.0,30.29,SSE,153,0.0,0.0,74,0.00,,,0.00,,2013-01-11 17:52:00,
2013-01-11 10:03:00,44.0,35.0,30.29,SSE,153,0.0,1.0,70,0.00,,,0.00,,2013-01-11 18:03:00,
2013-01-11 10:12:00,44.0,35.0,30.29,SSE,153,0.0,1.0,70,0.00,,,0.00,,2013-01-11 18:12:00,
2013-01-11 10:22:00,45.0,35.0,30.29,SSE,153,0.0,0.0,69,0.00,,,0.00,,2013-01-11 18:22:00,
2013-01-11 10:32:00,45.0,35.0,30.28,SSE,153,0.0,0.0,68,0.00,,,0.00,,2013-01-11 18:32:00,
2013-01-11 10:42:00,45.0,35.0,30.28,SSE,153,0.0,0.0,68,0.00,,,0.00,,2013-01-11 18:42:00,
2013-01-11 10:53:00,46.0,36.0,30.29,SSE,152,0.0,0.0,69,0.00,,,0.00,,2013-01-11 18:53:00,
2013-01-11 11:02:00,46.0,35.0,30.28,East,101,0.0,1.0,64,0.00,,,0.00,,2013-01-11 19:02:00,
2013-01-11 11:12:00,46.0,35.0,30.28,East,101,0.0,1.0,64,0.00,,,0.00,,2013-01-11 19:12:00,
2013-01-11 11:22:00,48.0,36.0,30.27,NNE,33,0.0,1.0,63,0.00,,,0.00,,2013-01-11 19:22:00,
2013-01-11 11:32:00,48.0,36.0,30.26,North,355,0.0,0.0,62,0.00,,,0.00,,2013-01-11 19:32:00,
2013-01-11 11:42:00,48.0,36.0,30.26,North,355,0.0,0.0,62,0.00,,,0.00,,2013-01-11 19:42:00,
2013-01-11 11:52:00,48.0,35.0,30.25,North,355,0.0,0.0,61,0.00,,,0.00,,2013-01-11 19:52:00,
2013-01-11 12:02:00,49.0,36.0,30.24,North,355,0.0,1.0,60,0.00,,,0.00,,2013-01-11 20:02:00,
2013-01-11 12:11:00,49.0,36.0,30.24,North,355,0.0,1.0,60,0.00,,,0.00,,2013-01-11 20:11:00,
2013-01-11 12:22:00,49.0,35.0,30.23,ENE,71,0.0,2.0,59,0.00,,,0.00,,2013-01-11 20:22:00,
2013-01-11 12:32:00,50.0,36.0,30.22,ENE,59,0.0,2.0,59,0.00,,,0.00,,2013-01-11 20:32:00,
2013-01-11 12:42:00,50.0,36.0,30.22,ENE,59,0.0,2.0,59,0.00,,,0.00,,2013-01-11 20:42:00,
2013-01-11 12:52:00,50.0,35.0,30.22,NNE,25,0.0,0.0,57,0.00,,,0.00,,2013-01-11 20:52:00,
2013-01-11 13:02:00,51.0,35.0,30.21,North,5,0.0,2.0,55,0.00,,,0.00,,2013-01-11 21:02:00,
2013-01-11 13:12:00,52.0,36.0,30.21,NE,55,0.0,5.0,55,0.00,,,0.00,,2013-01-11 21:12:00,
2013-01-11 13:22:00,52.0,36.0,30.21,NE,55,0.0,5.0,55,0.00,,,0.00,,2013-01-11 21:22:00,
2013-01-11 13:32:00,52.0,36.0,30.20,North,355,0.0,4.0,55,0.00,,,0.00,,2013-01-11 21:32:00,
2013-01-11 13:42:00,52.0,36.0,30.20,North,355,0.0,4.0,55,0.00,,,0.00,,2013-01-11 21:42:00,
2013-01-11 13:52:00,51.0,36.0,30.20,NNE,15,0.0,5.0,56,0.00,,,0.00,,2013-01-11 21:52:00,
2013-01-11 14:02:00,51.0,38.0,30.19,NNE,16,0.0,8.0,60,0.00,,,0.00,,2013-01-11 22:02:00,
2013-01-11 14:12:00,51.0,38.0,30.19,NNE,16,0.0,8.0,60,0.00,,,0.00,,2013-01-11 22:12:00,
2013-01-11 14:22:00,51.0,38.0,30.19,North,0,0.0,3.0,60,0.00,,,0.00,,2013-01-11 22:22:00,
2013-01-11 14:33:00,51.0,38.0,30.19,North,355,0.0,5.0,61,0.00,,,0.00,,2013-01-11 22:33:00,
2013-01-11 14:42:00,51.0,38.0,30.19,North,355,0.0,5.0,61,0.00,,,0.00,,2013-01-11 22:42:00,
2013-01-11 14:52:00,51.0,38.0,30.19,NNW,341,0.0,1.0,62,0.00,,,0.00,,2013-01-11 22:52:00,
2013-01-11 15:02:00,50.0,38.0,30.18,WSW,250,0.0,10.0,64,0.00,,,0.00,,2013-01-11 23:02:00,
2013-01-11 15:12:00,50.0,38.0,30.18,WSW,250,0.0,10.0,64,0.00,,,0.00,,2013-01-11 23:12:00,
2013-01-11 15:22:00,50.0,38.0,30.18,WSW,250,0.0,10.0,64,0.00,,,0.00,,2013-01-11 23:22:00,
2013-01-11 15:32:00,51.0,39.0,30.17,West,273,0.0,5.0,64,0.00,,,0.00,,2013-01-11 23:32:00,
2013-01-11 15:42:00,51.0,39.0,30.17,West,273,0.0,5.0,64,0.00,,,0.00,,2013-01-11 23:42:00,
2013-01-11 15:53:00,50.0,39.0,30.18,West,277,0.0,5.0,65,0.00,,,0.00,,2013-01-11 23:53:00,
2013-01-11 16:02:00,50.0,39.0,30.17,NW,319,1.0,9.0,66,0.00,,,0.00,,2013-01-12 00:02:00,
2013-01-11 16:12:00,50.0,39.0,30.17,NNW,327,0.0,9.0,67,0.00,,,0.00,,2013-01-12 00:12:00,
2013-01-11 16:22:00,50.0,39.0,30.17,NNW,327,0.0,9.0,67,0.00,,,0.00,,2013-01-12 00:22:00,
2013-01-11 16:32:00,49.0,39.0,30.17,West,277,0.0,4.0,67,0.00,,,0.00,,2013-01-12 00:32:00,
2013-01-11 16:42:00,49.0,39.0,30.17,West,277,0.0,4.0,67,0.00,,,0.00,,2013-01-12 00:42:00,
2013-01-11 16:52:00,49.0,39.0,30.17,WSW,246,0.0,8.0,69,0.00,,,0.00,,2013-01-12 00:52:00,
2013-01-11 17:02:00,48.0,39.0,30.16,WSW,257,0.0,1.0,70,0.00,,,0.00,,2013-01-12 01:02:00,
2013-01-11 17:12:00,48.0,39.0,30.16,WSW,257,0.0,1.0,70,0.00,,,0.00,,2013-01-12 01:12:00,
2013-01-11 17:22:00,48.0,39.0,30.16,West,265,0.0,0.0,70,0.00,,,0.00,,2013-01-12 01:22:00,
2013-01-11 17:32:00,48.0,39.0,30.16,West,265,0.0,0.0,71,0.00,,,0.00,,2013-01-12 01:32:00,
2013-01-11 17:42:00,48.0,39.0,30.16,West,265,0.0,0.0,71,0.00,,,0.00,,2013-01-12 01:42:00,
2013-01-11 17:52:00,47.0,38.0,30.16,West,265,0.0,0.0,71,0.00,,,0.00,,2013-01-12 01:52:00,
2013-01-11 18:02:00,46.0,37.0,30.16,West,265,0.0,0.0,72,0.00,,,0.00,,2013-01-12 02:02:00,
2013-01-11 18:11:00,46.0,37.0,30.16,West,265,0.0,0.0,72,0.00,,,0.00,,2013-01-12 02:11:00,
2013-01-11 18:22:00,45.0,37.0,30.16,West,265,0.0,0.0,73,0.00,,,0.00,,2013-01-12 02:22:00,
2013-01-11 18:32:00,45.0,37.0,30.16,West,265,0.0,0.0,74,0.00,,,0.00,,2013-01-12 02:32:00,
2013-01-11 18:42:00,45.0,37.0,30.16,West,265,0.0,0.0,74,0.00,,,0.00,,2013-01-12 02:42:00,
2013-01-11 18:53:00,44.0,37.0,30.16,West,264,0.0,0.0,76,0.00,,,0.00,,2013-01-12 02:53:00,
2013-01-11 19:02:00,44.0,37.0,30.16,West,265,0.0,0.0,77,0.00,,,0.00,,2013-01-12 03:02:00,
2013-01-11 19:11:00,44.0,37.0,30.16,West,265,0.0,0.0,77,0.00,,,0.00,,2013-01-12 03:11:00,
2013-01-11 19:22:00,43.0,37.0,30.16,West,264,0.0,0.0,78,0.00,,,0.00,,2013-01-12 03:22:00,
2013-01-11 19:32:00,43.0,37.0,30.16,West,264,0.0,0.0,79,0.00,,,0.00,,2013-01-12 03:32:00,
2013-01-11 19:42:00,43.0,37.0,30.16,West,264,0.0,0.0,79,0.00,,,0.00,,2013-01-12 03:42:00,
2013-01-11 19:53:00,42.0,36.0,30.16,West,265,0.0,0.0,80,0.00,,,0.00,,2013-01-12 03:53:00,
2013-01-11 20:02:00,42.0,37.0,30.16,West,265,0.0,0.0,81,0.00,,,0.00,,2013-01-12 04:02:00,
2013-01-11 20:11:00,42.0,37.0,30.16,West,265,0.0,0.0,81,0.00,,,0.00,,2013-01-12 04:11:00,
2013-01-11 20:22:00,42.0,37.0,30.16,West,265,0.0,0.0,81,0.00,,,0.00,,2013-01-12 04:22:00,
2013-01-11 20:32:00,42.0,37.0,30.16,West,264,0.0,0.0,81,0.00,,,0.00,,2013-01-12 04:32:00,
2013-01-11 20:42:00,42.0,37.0,30.16,West,264,0.0,0.0,81,0.00,,,0.00,,2013-01-12 04:42:00,
2013-01-11 20:52:00,42.0,37.0,30.16,West,265,0.0,0.0,81,0.00,,,0.00,,2013-01-12 04:52:00,
2013-01-11 21:03:00,41.0,36.0,30.17,West,265,0.0,0.0,81,0.00,,,0.00,,2013-01-12 05:03:00,
2013-01-11 21:12:00,41.0,36.0,30.17,West,265,0.0,0.0,81,0.00,,,0.00,,2013-01-12 05:12:00,
2013-01-11 21:22:00,41.0,36.0,30.18,West,264,0.0,0.0,82,0.00,,,0.00,,2013-01-12 05:22:00,
2013-01-11 21:32:00,41.0,36.0,30.18,West,265,0.0,0.0,82,0.00,,,0.00,,2013-01-12 05:32:00,
2013-01-11 21:42:00,41.0,36.0,30.18,West,265,0.0,0.0,82,0.00,,,0.00,,2013-01-12 05:42:00,
2013-01-11 21:52:00,41.0,36.0,30.19,West,264,0.0,0.0,83,0.00,,,0.00,,2013-01-12 05:52:00,
2013-01-11 22:02:00,41.0,36.0,30.19,West,265,0.0,0.0,83,0.00,,,0.00,,2013-01-12 06:02:00,
2013-01-11 22:12:00,41.0,36.0,30.19,West,265,0.0,0.0,83,0.00,,,0.00,,2013-01-12 06:12:00,
2013-01-11 22:22:00,41.0,37.0,30.19,SSE,150,0.0,4.0,84,0.00,,,0.00,,2013-01-12 06:22:00,
2013-01-11 22:32:00,41.0,37.0,30.19,East,82,0.0,0.0,84,0.00,,,0.00,,2013-01-12 06:32:00,
2013-01-11 22:42:00,41.0,37.0,30.19,East,82,0.0,0.0,84,0.00,,,0.00,,2013-01-12 06:42:00,
2013-01-11 22:52:00,41.0,36.0,30.19,East,82,0.0,0.0,83,0.00,,,0.00,,2013-01-12 06:52:00,
2013-01-11 23:02:00,41.0,36.0,30.19,East,82,0.0,0.0,83,0.00,,,0.00,,2013-01-12 07:02:00,
2013-01-11 23:11:00,40.0,35.0,30.19,East,82,0.0,0.0,81,0.00,,,0.00,,2013-01-12 07:11:00,
2013-01-11 23:21:00,40.0,35.0,30.19,East,82,0.0,0.0,81,0.00,,,0.00,,2013-01-12 07:21:00,
2013-01-11 23:32:00,39.0,34.0,30.19,East,82,0.0,0.0,81,0.00,,,0.00,,2013-01-12 07:32:00,
2013-01-11 23:42:00,39.0,34.0,30.19,East,82,0.0,0.0,81,0.00,,,0.00,,2013-01-12 07:42:00,
2013-01-11 23:52:00,39.0,34.0,30.20,East,82,0.0,0.0,81,0.00,,,0.00,,2013-01-12 07:52:00,